createdAt,value
2022-11-25T00:00:23.910Z,181.83
2022-11-25T00:04:26.618Z,24.47
2022-11-25T00:08:26.692Z,32.13
2022-11-25T00:12:26.766Z,22.83
2022-11-25T00:16:29.206Z,39.47
2022-11-25T00:20:31.959Z,145.33
2022-11-25T00:24:32.353Z,65.10
2022-11-25T00:28:32.559Z,45.33
2022-11-25T00:32:32.726Z,39.30
2022-11-25T00:36:39.162Z,62.43
2022-11-25T00:40:40.060Z,14.10
2022-11-25T00:44:38.910Z,136.67
2022-11-25T00:48:39.541Z,208.10
2022-11-25T00:52:42.217Z,12.97
2022-11-25T00:56:42.471Z,18.73
2022-11-25T01:00:42.703Z,15.70
2022-11-25T01:04:43.149Z,17.60
2022-11-25T01:08:45.869Z,12.20
2022-11-25T01:12:45.943Z,9.90
2022-11-25T01:16:46.078Z,65.70
2022-11-25T01:20:46.282Z,28.17
2022-11-25T01:24:48.954Z,33.77
2022-11-25T01:28:50.260Z,65.73
2022-11-25T01:32:50.313Z,57.60
2022-11-25T01:36:50.461Z,28.70
2022-11-25T01:40:53.127Z,21.70
2022-11-25T01:45:35.616Z,105.83
2022-11-25T01:49:43.818Z,103.87
2022-11-25T01:53:44.342Z,26.93
2022-11-25T01:57:59.093Z,49.67
2022-11-25T02:02:01.891Z,46.80
2022-11-25T02:06:12.814Z,65.30
2022-11-25T02:10:19.383Z,30.70
2022-11-25T02:14:26.068Z,62.37
2022-11-25T02:18:27.749Z,93.57
2022-11-25T02:22:47.436Z,126.57
2022-11-25T02:26:50.796Z,69.73
2022-11-25T02:30:51.743Z,96.77
2022-11-25T02:34:53.159Z,11.80
2022-11-25T02:38:58.608Z,11.83
2022-11-25T02:43:04.825Z,71.30
2022-11-25T02:47:04.920Z,94.63
2022-11-25T02:51:05.867Z,216.13
2022-11-25T02:55:06.089Z,192.47
2022-11-25T02:59:10.264Z,151.03
2022-11-25T03:03:11.653Z,192.50
2022-11-25T03:07:11.791Z,191.03
2022-11-25T03:11:11.859Z,31.17
2022-11-25T03:15:15.176Z,212.53
2022-11-25T03:19:15.317Z,101.57
2022-11-25T03:23:15.822Z,129.37
2022-11-25T03:27:16.035Z,150.97
2022-11-25T03:31:18.952Z,48.70
2022-11-25T03:35:20.455Z,36.73
2022-11-25T03:39:20.966Z,7.03
2022-11-25T03:43:21.466Z,36.07
2022-11-25T03:47:25.322Z,209.20
2022-11-25T03:51:25.807Z,188.13
2022-11-25T03:55:26.888Z,78.87
2022-11-25T03:59:28.609Z,195.27
2022-11-25T04:03:31.746Z,106.03
2022-11-25T04:07:32.565Z,165.40
2022-11-25T04:11:44.983Z,72.40
2022-11-25T04:15:49.038Z,90.07
2022-11-25T04:19:53.183Z,62.63
2022-11-25T04:23:53.563Z,27.97
2022-11-25T04:27:54.949Z,176.13
2022-11-25T04:32:01.960Z,159.10
2022-11-25T04:36:04.695Z,240.00
2022-11-25T04:40:04.971Z,250.70
2022-11-25T04:44:07.102Z,334.90
2022-11-25T04:48:10.019Z,181.53
2022-11-25T04:52:14.359Z,109.43
2022-11-25T04:56:21.845Z,330.90
2022-11-25T05:00:25.644Z,214.63
2022-11-25T05:04:26.790Z,368.60
2022-11-25T05:08:30.639Z,257.10
2022-11-25T05:12:33.280Z,360.43
2022-11-25T05:16:36.628Z,173.33
2022-11-25T05:20:37.168Z,301.10
2022-11-25T05:24:39.950Z,378.47
2022-11-25T05:28:40.502Z,337.63
2022-11-25T05:32:40.673Z,294.77
2022-11-25T05:36:44.745Z,223.47
2022-11-25T05:40:48.129Z,154.77
2022-11-25T05:44:50.674Z,291.60
2022-11-25T05:48:51.007Z,236.37
2022-11-25T05:52:51.329Z,172.17
2022-11-25T05:56:54.135Z,257.70
2022-11-25T06:01:24.182Z,295.03
2022-11-25T06:05:24.796Z,294.60
2022-11-25T06:09:24.985Z,348.53
2022-11-25T06:13:28.337Z,269.67
2022-11-25T06:17:30.594Z,185.20
2022-11-25T06:21:45.532Z,149.97
2022-11-25T06:25:47.611Z,278.33
2022-11-25T06:29:50.360Z,241.43
2022-11-25T06:33:52.612Z,186.47
2022-11-25T06:37:53.544Z,133.83
2022-11-25T06:41:53.616Z,156.47
2022-11-25T06:45:56.408Z,185.47
2022-11-25T06:49:56.615Z,164.33
2022-11-25T06:53:56.834Z,108.00
2022-11-25T06:58:13.946Z,181.13
2022-11-25T07:02:20.263Z,168.87
2022-11-25T07:06:22.092Z,132.27
2022-11-25T07:10:23.806Z,258.10
2022-11-25T07:14:24.091Z,117.07
2022-11-25T07:18:26.775Z,125.93
2022-11-25T07:22:27.180Z,222.00
2022-11-25T07:26:31.047Z,136.23
2022-11-25T07:34:56.060Z,63.23
2022-11-25T07:39:18.758Z,44.00
2022-11-25T07:43:19.264Z,31.93
2022-11-25T07:47:19.575Z,29.10
2022-11-25T07:51:25.484Z,13.17
2022-11-25T07:55:25.759Z,33.23
2022-11-25T07:59:32.730Z,27.43
2022-11-25T08:04:02.202Z,43.60
2022-11-25T08:08:05.407Z,26.37
2022-11-25T08:12:48.184Z,32.03
2022-11-25T08:16:48.899Z,36.97
2022-11-25T08:20:52.161Z,28.17
2022-11-25T08:25:01.239Z,32.13
2022-11-25T08:29:05.096Z,19.10
2022-11-25T08:33:10.665Z,23.83
2022-11-25T08:37:28.726Z,19.37
2022-11-25T08:41:37.493Z,28.50
2022-11-25T08:45:38.452Z,28.20
2022-11-25T08:49:45.625Z,18.20
2022-11-25T08:53:58.862Z,17.57
2022-11-25T08:58:15.865Z,20.07
2022-11-25T09:02:27.820Z,17.97
2022-11-25T09:06:34.674Z,17.47
2022-11-25T09:10:37.473Z,14.80
2022-11-25T09:14:41.478Z,14.33
2022-11-25T09:18:55.789Z,14.73
2022-11-25T09:22:57.944Z,16.03
2022-11-25T09:27:22.455Z,14.57
2022-11-25T09:31:32.209Z,14.97
2022-11-25T09:35:50.744Z,13.47
2022-11-25T09:40:09.922Z,13.97
2022-11-25T09:44:50.416Z,11.80
2022-11-25T09:49:21.319Z,13.23
2022-11-25T09:53:52.074Z,13.07
2022-11-25T09:58:17.490Z,14.23
2022-11-25T10:02:39.313Z,14.00
2022-11-25T10:06:57.758Z,11.93
2022-11-25T10:11:18.869Z,10.73
2022-11-25T10:15:26.144Z,10.83
2022-11-25T10:19:46.433Z,12.03
2022-11-25T10:23:49.234Z,12.07
2022-11-25T10:27:56.980Z,11.83
2022-11-25T10:32:14.477Z,12.27
2022-11-25T10:36:21.102Z,12.60
2022-11-25T10:40:25.084Z,12.90
2022-11-25T10:44:33.900Z,11.10
2022-11-25T10:48:58.742Z,11.07
2022-11-25T10:53:05.397Z,14.93
2022-11-25T10:57:26.216Z,14.03
2022-11-25T11:01:50.258Z,13.27
2022-11-25T11:06:09.861Z,9.93
2022-11-25T11:10:26.180Z,11.83
2022-11-25T11:14:30.097Z,13.40
2022-11-25T11:18:42.231Z,12.07
2022-11-25T11:22:56.101Z,12.03
2022-11-25T11:27:25.270Z,13.27
2022-11-25T11:31:34.637Z,13.40
2022-11-25T11:36:07.011Z,15.27
2022-11-25T11:40:30.346Z,17.77
2022-11-25T11:44:50.194Z,14.13
2022-11-25T11:49:05.763Z,14.93
2022-11-25T11:53:19.970Z,15.20
2022-11-25T11:57:36.827Z,19.97
2022-11-25T12:02:19.276Z,17.73
2022-11-25T12:06:43.653Z,14.57
2022-11-25T12:11:24.406Z,11.70
2022-11-25T12:16:22.461Z,12.23
2022-11-25T12:21:41.826Z,15.70
2022-11-25T12:26:33.409Z,14.33
2022-11-25T12:31:38.538Z,14.13
2022-11-25T12:36:29.352Z,15.57
2022-11-25T12:41:26.175Z,18.43
2022-11-25T12:45:39.716Z,14.27
2022-11-25T12:49:46.591Z,15.67
2022-11-25T12:53:54.734Z,18.63
2022-11-25T12:58:43.873Z,27.93
2022-11-25T13:03:43.701Z,33.40
2022-11-25T13:07:59.339Z,15.00
2022-11-25T13:12:21.079Z,18.67
2022-11-25T13:16:28.317Z,15.60
2022-11-25T13:20:52.993Z,18.33
2022-11-25T13:24:53.740Z,20.87
2022-11-25T13:28:54.539Z,14.43
2022-11-25T13:32:58.034Z,15.27
2022-11-25T13:37:01.198Z,15.23
2022-11-25T13:41:04.148Z,16.80
2022-11-25T13:45:05.982Z,20.73
2022-11-25T13:49:28.426Z,16.03
2022-11-25T13:53:37.566Z,15.20
2022-11-25T13:57:43.453Z,13.47
2022-11-25T14:01:56.181Z,12.47
2022-11-25T14:06:12.460Z,13.33
2022-11-25T14:10:46.186Z,15.50
2022-11-25T14:15:27.872Z,16.27
2022-11-25T14:20:15.961Z,16.83
2022-11-25T14:24:33.339Z,21.97
2022-11-25T14:28:42.725Z,17.70
2022-11-25T14:32:53.309Z,19.93
2022-11-25T14:36:59.523Z,22.60
2022-11-25T14:41:10.466Z,20.30
2022-11-25T14:45:26.390Z,18.93
2022-11-25T14:53:51.176Z,17.93
2022-11-25T14:57:55.598Z,19.97
2022-11-25T15:01:58.051Z,28.63
2022-11-25T15:06:00.603Z,22.63
2022-11-25T15:10:00.784Z,20.23
2022-11-25T15:14:07.979Z,22.27
2022-11-25T15:18:09.569Z,21.90
2022-11-25T15:22:23.026Z,21.93
2022-11-25T15:26:26.976Z,18.83
2022-11-25T15:30:32.001Z,18.30
2022-11-25T15:34:33.214Z,22.07
2022-11-25T15:38:43.886Z,21.70
2022-11-25T15:42:45.758Z,28.23
2022-11-25T15:46:57.898Z,32.10
2022-11-25T15:51:05.642Z,24.80
2022-11-25T15:55:10.781Z,26.57
2022-11-25T15:59:48.406Z,24.83
2022-11-25T16:03:53.129Z,24.93
2022-11-25T16:08:28.265Z,20.70
2022-11-25T16:12:28.476Z,24.47
2022-11-25T16:16:32.445Z,27.47
2022-11-25T16:20:35.263Z,24.77
2022-11-25T16:24:44.312Z,26.93
2022-11-25T16:28:54.319Z,24.50
2022-11-25T16:32:54.473Z,21.80
2022-11-25T16:36:57.499Z,31.03
2022-11-25T16:40:57.734Z,30.47
2022-11-25T16:44:57.883Z,24.50
2022-11-25T16:48:57.967Z,21.20
2022-11-25T16:53:01.566Z,22.23
2022-11-25T16:57:02.104Z,22.53
2022-11-25T17:01:02.498Z,22.60
2022-11-25T17:05:17.918Z,32.80
2022-11-25T17:09:21.138Z,27.37
2022-11-25T17:13:25.911Z,28.63
2022-11-25T17:17:28.984Z,28.27
2022-11-25T17:21:31.127Z,29.13
2022-11-25T17:25:37.379Z,28.80
2022-11-25T17:29:42.544Z,25.67
2022-11-25T17:33:46.113Z,26.10
2022-11-25T17:37:46.329Z,25.17
2022-11-25T17:41:51.867Z,28.00
2022-11-25T17:45:52.071Z,33.23
2022-11-25T17:49:53.218Z,33.63
2022-11-25T17:53:54.219Z,35.63
2022-11-25T17:57:57.860Z,33.77
2022-11-25T18:01:59.411Z,41.87
2022-11-25T18:05:59.706Z,38.70
2022-11-25T18:09:59.859Z,39.97
2022-11-25T18:14:02.624Z,34.60
2022-11-25T18:18:07.400Z,33.67
2022-11-25T18:22:16.559Z,29.87
2022-11-25T18:26:16.658Z,31.63
2022-11-25T18:30:26.498Z,38.13
2022-11-25T18:34:27.897Z,36.20
2022-11-25T18:38:31.231Z,35.90
2022-11-25T18:42:34.676Z,37.20
2022-11-25T18:46:41.385Z,44.10
2022-11-25T18:50:41.699Z,54.13
2022-11-25T18:54:41.907Z,34.47
2022-11-25T18:58:42.991Z,29.03
2022-11-25T19:02:46.121Z,24.27
2022-11-25T19:06:46.756Z,21.83
2022-11-25T19:10:49.750Z,19.17
2022-11-25T19:14:52.712Z,23.47
2022-11-25T19:18:55.899Z,18.87
2022-11-25T19:23:00.601Z,19.03
2022-11-25T19:27:01.501Z,20.40
2022-11-25T19:31:05.838Z,23.40
2022-11-25T19:35:11.235Z,18.83
2022-11-25T19:39:20.614Z,18.77
2022-11-25T19:43:22.647Z,19.43
2022-11-25T19:47:26.893Z,22.17
2022-11-25T19:51:34.638Z,24.67
2022-11-25T19:55:35.689Z,20.90
2022-11-25T19:59:35.900Z,21.23
2022-11-25T20:03:37.804Z,18.17
2022-11-25T20:07:41.708Z,16.43
2022-11-25T20:11:42.168Z,18.93
2022-11-25T20:15:43.642Z,25.13
2022-11-25T20:19:44.673Z,23.07
2022-11-25T20:23:50.133Z,22.10
2022-11-25T20:27:50.480Z,25.27
2022-11-25T20:31:50.979Z,30.07
2022-11-25T20:35:55.812Z,23.10
2022-11-25T20:40:02.772Z,26.07
2022-11-25T20:44:03.549Z,22.00
2022-11-25T20:48:07.154Z,22.27
2022-11-25T20:52:08.996Z,25.00
2022-11-25T20:56:16.648Z,24.47
2022-11-25T21:00:23.966Z,25.73
2022-11-25T21:04:24.701Z,23.10
2022-11-25T21:08:28.659Z,23.37
2022-11-25T21:12:34.384Z,27.47
2022-11-25T21:16:34.882Z,25.23
2022-11-25T21:20:36.297Z,23.27
2022-11-25T21:24:43.852Z,31.57
2022-11-25T21:28:52.062Z,27.27
2022-11-25T21:32:56.565Z,26.83
2022-11-25T21:36:59.787Z,25.00
2022-11-25T21:41:02.918Z,24.63
2022-11-25T21:45:06.838Z,26.40
2022-11-25T21:49:14.265Z,29.63
2022-11-25T21:53:14.697Z,24.63
2022-11-25T21:57:20.075Z,28.93
2022-11-25T22:01:26.894Z,26.17
2022-11-25T22:05:30.845Z,26.90
2022-11-25T22:09:31.842Z,29.87
2022-11-25T22:13:41.326Z,28.40
2022-11-25T22:17:45.382Z,31.37
2022-11-25T22:21:56.660Z,27.27
2022-11-25T22:25:58.920Z,26.83
2022-11-25T22:29:59.419Z,26.57
2022-11-25T22:34:02.198Z,27.60
2022-11-25T22:38:03.142Z,31.20
2022-11-25T22:42:08.994Z,28.20
2022-11-25T22:46:09.824Z,27.13
2022-11-25T22:50:24.919Z,28.33
2022-11-25T22:54:26.350Z,27.63
2022-11-25T22:58:28.023Z,31.47
2022-11-25T23:02:36.604Z,26.63
2022-11-25T23:06:39.362Z,34.27
2022-11-25T23:10:39.456Z,32.63
2022-11-25T23:14:39.742Z,25.47
2022-11-25T23:18:43.436Z,25.83
2022-11-25T23:22:46.132Z,22.93
2022-11-25T23:26:46.688Z,25.57
2022-11-25T23:30:52.903Z,23.83
2022-11-25T23:34:53.654Z,24.07
2022-11-25T23:38:59.854Z,24.47
2022-11-25T23:43:00.230Z,23.07
2022-11-25T23:47:05.775Z,24.37
2022-11-25T23:51:05.962Z,25.97
2022-11-25T23:55:10.469Z,20.80
2022-11-25T23:59:16.372Z,24.20
